createdAt,value
2023-01-28T00:01:13.342Z,13.70
2023-01-28T00:03:40.168Z,13.00
2023-01-28T00:06:09.556Z,13.65
2023-01-28T00:08:36.409Z,14.27
2023-01-28T00:11:04.836Z,14.18
2023-01-28T00:13:33.043Z,13.13
2023-01-28T00:16:01.911Z,12.80
2023-01-28T00:18:29.364Z,12.70
2023-01-28T00:21:06.403Z,12.98
2023-01-28T00:23:35.368Z,13.20
2023-01-28T00:26:05.090Z,11.40
2023-01-28T00:28:31.870Z,13.15
2023-01-28T00:30:58.533Z,12.82
2023-01-28T00:33:25.430Z,12.70
2023-01-28T00:36:02.349Z,11.68
2023-01-28T00:38:29.257Z,12.80
2023-01-28T00:40:55.994Z,13.65
2023-01-28T00:43:22.612Z,12.25
2023-01-28T00:45:50.335Z,11.50
2023-01-28T00:48:17.226Z,12.50
2023-01-28T00:50:45.684Z,11.68
2023-01-28T00:53:12.218Z,12.90
2023-01-28T00:55:38.973Z,13.02
2023-01-28T00:58:05.606Z,10.52
2023-01-28T01:00:32.222Z,12.18
2023-01-28T01:02:59.439Z,13.43
2023-01-28T01:05:26.065Z,12.10
2023-01-28T01:07:52.592Z,12.23
2023-01-28T01:10:23.269Z,13.68
2023-01-28T01:12:50.739Z,14.73
2023-01-28T01:15:18.027Z,13.73
2023-01-28T01:17:49.032Z,13.68
2023-01-28T01:20:24.484Z,14.15
2023-01-28T01:22:51.303Z,13.68
2023-01-28T01:25:18.731Z,14.55
2023-01-28T01:27:49.485Z,13.68
2023-01-28T01:30:16.939Z,14.50
2023-01-28T01:32:43.590Z,14.07
2023-01-28T01:35:10.839Z,15.48
2023-01-28T01:37:37.706Z,15.38
2023-01-28T01:40:05.642Z,14.10
2023-01-28T01:42:35.027Z,15.93
2023-01-28T01:45:13.461Z,15.65
2023-01-28T01:48:16.150Z,15.98
2023-01-28T01:50:51.321Z,15.57
2023-01-28T01:53:20.944Z,15.57
2023-01-28T01:55:50.026Z,15.82
2023-01-28T01:58:21.654Z,16.50
2023-01-28T02:00:48.358Z,15.68
2023-01-28T02:03:19.507Z,15.38
2023-01-28T02:05:46.185Z,17.45
2023-01-28T02:08:21.709Z,16.75
2023-01-28T02:10:54.115Z,15.35
2023-01-28T02:13:25.441Z,15.88
2023-01-28T02:15:52.724Z,16.40
2023-01-28T02:18:19.859Z,16.35
2023-01-28T02:21:21.637Z,17.10
2023-01-28T02:24:06.347Z,16.35
2023-01-28T02:26:35.601Z,15.65
2023-01-28T02:29:36.311Z,16.00
2023-01-28T02:32:09.990Z,16.15
2023-01-28T02:34:43.255Z,15.88
2023-01-28T02:37:18.836Z,16.98
2023-01-28T02:39:52.468Z,15.38
2023-01-28T02:42:23.758Z,14.88
2023-01-28T02:44:50.330Z,14.73
2023-01-28T02:47:35.596Z,16.70
2023-01-28T02:50:09.732Z,16.77
2023-01-28T02:53:13.440Z,16.23
2023-01-28T02:55:49.909Z,17.02
2023-01-28T02:58:32.030Z,15.50
2023-01-28T03:01:36.905Z,15.45
2023-01-28T03:04:23.629Z,15.48
2023-01-28T03:06:54.850Z,16.40
2023-01-28T03:09:24.743Z,15.68
2023-01-28T03:12:18.560Z,14.68
2023-01-28T03:15:09.441Z,14.70
2023-01-28T03:18:00.920Z,14.25
2023-01-28T03:20:52.855Z,13.75
2023-01-28T03:23:46.240Z,15.20
2023-01-28T03:26:33.940Z,13.50
2023-01-28T03:29:27.433Z,15.43
2023-01-28T03:32:13.819Z,15.77
2023-01-28T03:34:59.202Z,14.23
2023-01-28T03:37:28.487Z,14.05
2023-01-28T03:39:58.196Z,13.88
2023-01-28T03:42:24.765Z,15.18
2023-01-28T03:44:53.888Z,14.48
2023-01-28T03:47:25.571Z,13.73
2023-01-28T03:49:54.465Z,14.30
2023-01-28T03:52:30.415Z,14.70
2023-01-28T03:54:57.096Z,16.08
2023-01-28T03:57:26.008Z,15.02
2023-01-28T03:59:55.412Z,14.18
2023-01-28T04:02:23.143Z,14.43
2023-01-28T04:04:50.422Z,14.52
2023-01-28T04:07:17.887Z,14.55
2023-01-28T04:09:44.758Z,15.52
2023-01-28T04:12:12.125Z,14.07
2023-01-28T04:14:40.276Z,15.95
2023-01-28T04:17:12.942Z,15.10
2023-01-28T04:19:40.367Z,14.73
2023-01-28T04:22:10.828Z,15.15
2023-01-28T04:24:37.377Z,14.63
2023-01-28T04:27:03.916Z,13.45
2023-01-28T04:29:31.759Z,13.63
2023-01-28T04:31:58.355Z,15.48
2023-01-28T04:34:24.944Z,14.65
2023-01-28T04:36:51.573Z,14.15
2023-01-28T04:39:18.320Z,14.02
2023-01-28T04:41:44.863Z,13.25
2023-01-28T04:44:11.378Z,13.93
2023-01-28T04:46:37.945Z,15.63
2023-01-28T04:49:04.582Z,13.80
2023-01-28T04:51:31.210Z,15.40
2023-01-28T04:54:00.288Z,15.23
2023-01-28T04:56:26.953Z,14.52
2023-01-28T04:58:53.545Z,13.55
2023-01-28T05:01:20.211Z,14.48
2023-01-28T05:03:46.761Z,15.20
2023-01-28T05:06:13.309Z,13.77
2023-01-28T05:08:40.159Z,14.40
2023-01-28T05:11:06.712Z,15.00
2023-01-28T05:13:33.397Z,14.88
2023-01-28T05:16:02.507Z,14.00
2023-01-28T05:18:29.116Z,15.75
2023-01-28T05:20:55.714Z,15.52
2023-01-28T05:23:22.520Z,15.07
2023-01-28T05:25:49.584Z,15.82
2023-01-28T05:28:16.788Z,13.85
2023-01-28T05:30:43.486Z,14.90
2023-01-28T05:33:10.026Z,14.45
2023-01-28T05:35:36.805Z,16.08
2023-01-28T05:38:04.090Z,16.23
2023-01-28T05:40:30.644Z,15.30
2023-01-28T05:42:57.388Z,14.05
2023-01-28T05:45:24.023Z,14.48
2023-01-28T05:47:50.666Z,15.93
2023-01-28T05:50:17.590Z,16.35
2023-01-28T05:52:44.758Z,15.13
2023-01-28T05:55:11.609Z,16.13
2023-01-28T05:57:38.191Z,16.00
2023-01-28T06:00:05.777Z,16.02
2023-01-28T06:02:32.624Z,16.48
2023-01-28T06:04:59.927Z,16.90
2023-01-28T06:07:26.604Z,16.90
2023-01-28T06:09:53.137Z,15.63
2023-01-28T06:12:19.623Z,16.08
2023-01-28T06:14:46.113Z,15.82
2023-01-28T06:17:15.725Z,16.55
2023-01-28T06:19:42.339Z,16.23
2023-01-28T06:22:08.913Z,16.13
2023-01-28T06:24:35.523Z,16.17
2023-01-28T06:27:02.284Z,16.50
2023-01-28T06:29:29.147Z,16.65
2023-01-28T06:31:55.801Z,16.83
2023-01-28T06:34:22.413Z,16.48
2023-01-28T06:36:50.950Z,17.27
2023-01-28T06:39:17.509Z,15.82
2023-01-28T06:41:44.114Z,17.67
2023-01-28T06:44:10.657Z,17.10
2023-01-28T06:46:37.241Z,17.75
2023-01-28T06:49:04.017Z,16.70
2023-01-28T06:51:37.856Z,16.25
2023-01-28T06:54:04.593Z,16.95
2023-01-28T06:56:31.611Z,16.13
2023-01-28T06:58:58.128Z,17.15
2023-01-28T07:01:25.002Z,16.52
2023-01-28T07:03:51.770Z,15.38
2023-01-28T07:06:18.330Z,16.33
2023-01-28T07:08:45.011Z,15.13
2023-01-28T07:11:11.589Z,15.57
2023-01-28T07:13:38.307Z,15.25
2023-01-28T07:16:05.204Z,15.23
2023-01-28T07:18:31.812Z,16.20
2023-01-28T07:20:58.479Z,14.90
2023-01-28T07:23:26.092Z,14.75
2023-01-28T07:25:54.810Z,15.45
2023-01-28T07:28:21.688Z,15.35
2023-01-28T07:30:52.479Z,14.77
2023-01-28T07:33:19.949Z,15.25
2023-01-28T07:35:48.758Z,14.65
2023-01-28T07:38:15.491Z,14.13
2023-01-28T07:40:47.191Z,16.73
2023-01-28T07:43:14.368Z,15.52
2023-01-28T07:45:43.648Z,16.02
2023-01-28T07:48:12.463Z,14.50
2023-01-28T07:50:39.728Z,16.35
2023-01-28T07:53:08.125Z,15.55
2023-01-28T07:55:38.292Z,15.25
2023-01-28T07:58:06.832Z,16.33
2023-01-28T08:00:37.779Z,14.82
2023-01-28T08:03:07.338Z,15.00
2023-01-28T08:05:40.830Z,15.30
2023-01-28T08:08:10.692Z,14.82
2023-01-28T08:10:37.749Z,14.55
2023-01-28T08:13:04.922Z,15.48
2023-01-28T08:15:34.073Z,16.35
2023-01-28T08:18:07.609Z,14.43
2023-01-28T08:20:34.340Z,15.90
2023-01-28T08:23:18.587Z,15.02
2023-01-28T08:25:46.384Z,14.25
2023-01-28T08:28:14.278Z,14.40
2023-01-28T08:30:41.220Z,14.20
2023-01-28T08:33:09.339Z,14.07
2023-01-28T08:35:40.463Z,15.20
2023-01-28T08:38:11.884Z,15.93
2023-01-28T08:40:38.589Z,14.35
2023-01-28T08:43:05.521Z,14.85
2023-01-28T08:45:32.617Z,16.33
2023-01-28T08:48:00.383Z,14.05
2023-01-28T08:50:35.640Z,13.77
2023-01-28T08:53:04.773Z,14.30
2023-01-28T08:55:31.762Z,14.10
2023-01-28T08:58:02.416Z,14.00
2023-01-28T09:00:33.701Z,13.85
2023-01-28T09:03:00.252Z,14.35
2023-01-28T09:05:26.902Z,14.30
2023-01-28T09:07:53.475Z,14.43
2023-01-28T09:10:22.746Z,15.27
2023-01-28T09:12:49.387Z,14.98
2023-01-28T09:15:16.075Z,14.50
2023-01-28T09:17:42.612Z,14.23
2023-01-28T09:20:09.744Z,14.05
2023-01-28T09:22:39.236Z,14.90
2023-01-28T09:25:08.915Z,16.30
2023-01-28T09:27:35.508Z,14.13
2023-01-28T09:30:04.504Z,15.55
2023-01-28T09:32:31.380Z,13.80
2023-01-28T09:34:58.095Z,15.55
2023-01-28T09:37:27.198Z,15.02
2023-01-28T09:39:57.094Z,15.30
2023-01-28T09:42:48.607Z,15.68
2023-01-28T09:45:16.282Z,14.38
2023-01-28T09:47:54.545Z,15.13
2023-01-28T09:50:33.041Z,15.38
2023-01-28T09:53:10.739Z,14.27
2023-01-28T09:55:44.598Z,15.23
2023-01-28T09:58:13.582Z,14.52
2023-01-28T10:00:56.038Z,15.20
2023-01-28T10:03:59.985Z,15.77
2023-01-28T10:06:41.334Z,14.40
2023-01-28T10:09:44.145Z,15.13
2023-01-28T10:12:33.751Z,15.38
2023-01-28T10:15:03.155Z,15.35
2023-01-28T10:17:41.373Z,15.32
2023-01-28T10:20:17.301Z,14.32
2023-01-28T10:23:05.593Z,14.80
2023-01-28T10:25:33.526Z,13.88
2023-01-28T10:28:09.521Z,13.75
2023-01-28T10:30:41.674Z,14.95
2023-01-28T10:33:19.045Z,13.88
2023-01-28T10:35:45.649Z,14.93
2023-01-28T10:38:18.629Z,13.95
2023-01-28T10:40:48.243Z,13.93
2023-01-28T10:43:26.581Z,12.63
2023-01-28T10:46:21.293Z,15.10
2023-01-28T10:49:05.229Z,15.23
2023-01-28T10:51:36.887Z,14.55
2023-01-28T10:54:17.506Z,14.60
2023-01-28T10:56:49.259Z,13.20
2023-01-28T10:59:33.052Z,14.40
2023-01-28T11:02:22.724Z,13.70
2023-01-28T11:05:01.880Z,14.88
2023-01-28T11:07:28.743Z,15.05
2023-01-28T11:09:55.325Z,16.05
2023-01-28T11:12:32.800Z,15.90
2023-01-28T11:15:04.773Z,15.88
2023-01-28T11:17:38.649Z,15.38
2023-01-28T11:20:37.616Z,16.10
2023-01-28T11:23:04.709Z,16.15
2023-01-28T11:25:34.219Z,16.80
2023-01-28T11:28:19.483Z,14.40
2023-01-28T11:30:53.140Z,15.80
2023-01-28T11:33:23.848Z,15.93
2023-01-28T11:35:56.410Z,16.08
2023-01-28T11:38:26.403Z,16.75
2023-01-28T11:40:58.781Z,16.00
2023-01-28T11:43:29.859Z,15.23
2023-01-28T11:46:18.495Z,16.35
2023-01-28T11:49:06.501Z,17.42
2023-01-28T11:52:06.552Z,17.80
2023-01-28T11:54:38.893Z,14.98
2023-01-28T11:57:24.235Z,14.70
2023-01-28T12:00:11.519Z,15.95
2023-01-28T12:02:47.961Z,16.13
2023-01-28T12:05:17.747Z,14.43
2023-01-28T12:08:07.631Z,14.63
2023-01-28T12:10:58.491Z,15.75
2023-01-28T12:13:35.578Z,13.95
2023-01-28T12:16:23.633Z,14.13
2023-01-28T12:19:03.276Z,14.65
2023-01-28T12:21:46.971Z,14.07
2023-01-28T12:24:52.413Z,13.65
2023-01-28T12:27:21.003Z,13.73
2023-01-28T12:29:53.254Z,13.93
2023-01-28T12:32:46.111Z,15.02
2023-01-28T12:35:24.370Z,14.23
2023-01-28T12:38:03.817Z,14.05
2023-01-28T12:40:47.184Z,15.32
2023-01-28T12:43:20.686Z,14.45
2023-01-28T12:45:59.816Z,13.05
2023-01-28T12:48:39.972Z,13.82
2023-01-28T12:51:18.842Z,14.93
2023-01-28T12:54:35.120Z,14.35
2023-01-28T12:57:03.123Z,14.23
2023-01-28T12:59:45.150Z,14.23
2023-01-28T13:02:11.696Z,14.38
2023-01-28T13:04:48.098Z,13.48
2023-01-28T13:07:21.503Z,14.02
2023-01-28T13:10:10.973Z,14.60
2023-01-28T13:12:40.340Z,14.57
2023-01-28T13:15:12.486Z,13.77
2023-01-28T13:17:39.192Z,12.60
2023-01-28T13:20:30.718Z,13.52
2023-01-28T13:23:02.358Z,11.95
2023-01-28T13:25:29.253Z,11.70
2023-01-28T13:28:03.532Z,12.75
2023-01-28T13:30:33.124Z,12.60
2023-01-28T13:33:03.410Z,12.10
2023-01-28T13:35:41.098Z,12.70
2023-01-28T13:38:21.548Z,12.73
2023-01-28T13:41:00.728Z,13.23
2023-01-28T13:43:34.927Z,13.80
2023-01-28T13:46:08.531Z,13.18
2023-01-28T13:48:47.560Z,13.75
2023-01-28T13:51:23.987Z,13.68
2023-01-28T13:54:07.341Z,13.88
2023-01-28T13:56:58.810Z,13.30
2023-01-28T13:59:44.729Z,14.02
2023-01-28T14:02:30.540Z,15.20
2023-01-28T14:05:25.890Z,13.45
2023-01-28T14:08:18.221Z,13.80
2023-01-28T14:11:11.775Z,14.38
2023-01-28T14:13:46.993Z,14.80
2023-01-28T14:16:25.293Z,14.50
2023-01-28T14:18:59.565Z,13.45
2023-01-28T14:21:27.988Z,14.10
2023-01-28T14:23:57.448Z,13.93
2023-01-28T14:26:32.911Z,13.65
2023-01-28T14:29:13.348Z,15.13
2023-01-28T14:31:40.231Z,15.27
2023-01-28T14:34:06.794Z,14.48
2023-01-28T14:36:37.981Z,15.25
2023-01-28T14:39:04.756Z,13.90
2023-01-28T14:41:31.462Z,13.35
2023-01-28T14:43:58.498Z,14.63
2023-01-28T14:47:18.011Z,14.20
2023-01-28T14:49:53.672Z,15.23
2023-01-28T14:52:53.957Z,14.68
2023-01-28T14:55:54.598Z,14.50
2023-01-28T14:58:33.511Z,14.73
2023-01-28T15:01:02.366Z,14.48
2023-01-28T15:03:30.856Z,15.82
2023-01-28T15:06:06.611Z,14.57
2023-01-28T15:08:33.406Z,14.52
2023-01-28T15:11:01.688Z,14.30
2023-01-28T15:13:37.019Z,14.48
2023-01-28T15:16:04.924Z,14.02
2023-01-28T15:18:35.922Z,13.82
2023-01-28T15:21:03.351Z,14.23
2023-01-28T15:23:35.751Z,13.55
2023-01-28T15:26:08.195Z,14.52
2023-01-28T15:28:38.360Z,15.35
2023-01-28T15:31:05.375Z,13.95
2023-01-28T15:33:32.272Z,15.73
2023-01-28T15:35:59.444Z,15.98
2023-01-28T15:38:31.227Z,15.00
2023-01-28T15:41:02.265Z,15.73
2023-01-28T15:43:36.819Z,16.10
2023-01-28T15:46:13.629Z,17.73
2023-01-28T15:48:44.396Z,16.33
2023-01-28T15:51:21.963Z,16.00
2023-01-28T15:53:52.127Z,16.17
2023-01-28T15:56:27.814Z,17.15
2023-01-28T15:58:56.203Z,18.42
2023-01-28T16:01:23.992Z,17.10
2023-01-28T16:04:05.535Z,18.08
2023-01-28T16:06:42.780Z,17.40
2023-01-28T16:09:27.489Z,15.95
2023-01-28T16:11:54.192Z,16.98
2023-01-28T16:14:35.232Z,17.50
2023-01-28T16:17:02.071Z,17.30
2023-01-28T16:19:40.114Z,16.80
2023-01-28T16:22:08.462Z,17.58
2023-01-28T16:24:36.544Z,18.35
2023-01-28T16:27:07.325Z,17.05
2023-01-28T16:29:34.256Z,17.17
2023-01-28T16:32:03.174Z,16.90
2023-01-28T16:34:29.837Z,17.10
2023-01-28T16:37:00.331Z,17.25
2023-01-28T16:39:27.151Z,18.40
2023-01-28T16:41:53.988Z,16.77
2023-01-28T16:44:21.639Z,16.48
2023-01-28T16:46:48.205Z,16.42
2023-01-28T16:49:14.832Z,16.02
2023-01-28T16:51:44.155Z,17.08
2023-01-28T16:54:16.141Z,18.55
2023-01-28T16:56:46.491Z,17.00
2023-01-28T16:59:14.997Z,16.48
2023-01-28T17:01:42.179Z,17.52
2023-01-28T17:04:12.804Z,16.83
2023-01-28T17:06:42.961Z,17.10
2023-01-28T17:09:11.172Z,17.92
2023-01-28T17:11:39.694Z,17.15
2023-01-28T17:14:06.562Z,19.10
2023-01-28T17:16:33.164Z,17.27
2023-01-28T17:18:59.713Z,18.88
2023-01-28T17:21:26.233Z,17.30
2023-01-28T17:23:52.981Z,19.25
2023-01-28T17:26:19.673Z,18.05
2023-01-28T17:28:51.814Z,19.30
2023-01-28T17:31:18.787Z,17.98
2023-01-28T17:33:45.398Z,18.40
2023-01-28T17:36:11.981Z,20.95
2023-01-28T17:38:38.921Z,18.58
2023-01-28T17:41:08.171Z,19.15
2023-01-28T17:43:35.046Z,19.95
2023-01-28T17:46:09.784Z,18.48
2023-01-28T17:48:36.537Z,17.60
2023-01-28T17:51:03.183Z,19.38
2023-01-28T17:53:29.925Z,17.08
2023-01-28T17:55:56.495Z,18.27
2023-01-28T17:58:23.117Z,17.75
2023-01-28T18:00:49.973Z,17.88
2023-01-28T18:03:19.699Z,18.25
2023-01-28T18:05:57.522Z,19.33
2023-01-28T18:08:24.221Z,18.33
2023-01-28T18:10:50.700Z,17.55
2023-01-28T18:13:17.424Z,18.60
2023-01-28T18:15:43.956Z,17.38
2023-01-28T18:18:13.413Z,16.90
2023-01-28T18:20:39.905Z,18.67
2023-01-28T18:23:06.615Z,17.88
2023-01-28T18:25:33.124Z,18.25
2023-01-28T18:27:59.771Z,16.55
2023-01-28T18:30:26.376Z,17.30
2023-01-28T18:32:55.548Z,16.98
2023-01-28T18:35:22.110Z,18.02
2023-01-28T18:37:48.612Z,17.52
2023-01-28T18:40:15.255Z,15.95
2023-01-28T18:42:41.767Z,16.42
2023-01-28T18:45:08.677Z,17.33
2023-01-28T18:47:35.302Z,17.58
2023-01-28T18:50:02.110Z,16.83
2023-01-28T18:52:28.778Z,15.75
2023-01-28T18:54:55.331Z,18.10
2023-01-28T18:57:21.848Z,19.00
2023-01-28T18:59:48.583Z,18.48
2023-01-28T19:02:16.463Z,16.35
2023-01-28T19:04:43.294Z,16.20
2023-01-28T19:07:11.833Z,16.50
2023-01-28T19:09:38.934Z,17.52
2023-01-28T19:12:05.801Z,16.83
2023-01-28T19:14:32.556Z,18.08
2023-01-28T19:16:59.357Z,16.05
2023-01-28T19:19:26.164Z,17.98
2023-01-28T19:21:53.545Z,15.95
2023-01-28T19:24:20.466Z,15.93
2023-01-28T19:26:47.431Z,18.17
2023-01-28T19:29:16.337Z,17.75
2023-01-28T19:31:45.457Z,17.35
2023-01-28T19:34:13.090Z,17.27
2023-01-28T19:36:41.271Z,17.85
2023-01-28T19:39:09.513Z,17.80
2023-01-28T19:41:36.802Z,16.20
2023-01-28T19:44:05.064Z,15.93
2023-01-28T19:46:32.207Z,16.17
2023-01-28T19:48:58.826Z,14.82
2023-01-28T19:51:25.445Z,14.50
2023-01-28T19:53:53.681Z,15.48
2023-01-28T19:56:22.533Z,12.98
2023-01-28T19:58:49.447Z,14.00
2023-01-28T20:01:21.600Z,14.60
2023-01-28T20:03:55.954Z,13.75
2023-01-28T20:06:29.484Z,14.38
2023-01-28T20:09:01.932Z,12.93
2023-01-28T20:11:30.981Z,12.90
2023-01-28T20:13:57.560Z,14.40
2023-01-28T20:16:34.721Z,13.27
2023-01-28T20:19:04.752Z,13.48
2023-01-28T20:21:32.917Z,14.00
2023-01-28T20:24:01.111Z,14.10
2023-01-28T20:26:31.979Z,12.02
2023-01-28T20:29:13.298Z,14.05
2023-01-28T20:31:42.362Z,13.00
2023-01-28T20:34:14.392Z,13.05
2023-01-28T20:36:40.962Z,13.27
2023-01-28T20:39:10.060Z,13.20
2023-01-28T20:41:37.261Z,13.45
2023-01-28T20:44:03.951Z,11.82
2023-01-28T20:46:33.068Z,13.50
2023-01-28T20:49:03.060Z,11.65
2023-01-28T20:51:31.556Z,12.93
2023-01-28T20:54:00.544Z,12.25
2023-01-28T20:56:29.945Z,13.05
2023-01-28T20:59:05.069Z,12.43
2023-01-28T21:04:00.833Z,11.82
2023-01-28T21:06:28.274Z,10.85
2023-01-28T21:08:54.955Z,11.80
2023-01-28T21:11:22.959Z,12.07
2023-01-28T21:13:50.100Z,11.95
2023-01-28T21:16:17.307Z,11.43
2023-01-28T21:18:44.596Z,12.13
2023-01-28T21:21:22.775Z,11.20
2023-01-28T21:23:50.407Z,12.13
2023-01-28T21:26:17.469Z,12.02
2023-01-28T21:28:44.921Z,13.05
2023-01-28T21:31:18.440Z,12.77
2023-01-28T21:33:52.592Z,12.10
2023-01-28T21:36:19.888Z,14.50
2023-01-28T21:38:57.755Z,11.07
2023-01-28T21:41:24.619Z,11.60
2023-01-28T21:43:53.775Z,11.68
2023-01-28T21:46:21.882Z,10.50
2023-01-28T21:48:48.480Z,11.98
2023-01-28T21:51:33.759Z,11.10
2023-01-28T21:54:02.835Z,12.02
2023-01-28T21:56:32.181Z,10.85
2023-01-28T21:59:17.281Z,12.60
2023-01-28T22:01:44.863Z,11.32
2023-01-28T22:04:14.269Z,12.07
2023-01-28T22:06:45.355Z,12.38
2023-01-28T22:09:13.566Z,11.55
2023-01-28T22:11:41.732Z,12.05
2023-01-28T22:14:08.702Z,11.90
2023-01-28T22:16:35.901Z,12.10
2023-01-28T22:19:03.077Z,10.70
2023-01-28T22:21:29.673Z,11.77
2023-01-28T22:23:56.305Z,11.70
2023-01-28T22:26:23.319Z,10.98
2023-01-28T22:28:49.844Z,11.07
2023-01-28T22:31:16.851Z,11.50
2023-01-28T22:33:43.932Z,11.57
2023-01-28T22:36:15.896Z,11.02
2023-01-28T22:38:44.102Z,11.13
2023-01-28T22:41:19.301Z,13.57
2023-01-28T22:43:46.798Z,13.55
2023-01-28T22:46:13.545Z,12.05
2023-01-28T22:48:40.475Z,13.68
2023-01-28T22:51:10.557Z,13.45
2023-01-28T22:53:37.120Z,13.48
2023-01-28T22:56:03.838Z,13.88
2023-01-28T22:58:31.685Z,12.90
2023-01-28T23:00:58.449Z,14.55
2023-01-28T23:03:25.451Z,13.93
2023-01-28T23:05:57.081Z,14.23
2023-01-28T23:08:23.668Z,16.20
2023-01-28T23:10:53.388Z,15.13
2023-01-28T23:13:21.454Z,13.82
2023-01-28T23:16:08.316Z,13.18
2023-01-28T23:18:56.780Z,14.73
2023-01-28T23:21:44.390Z,13.35
2023-01-28T23:24:19.646Z,12.63
2023-01-28T23:26:54.916Z,12.93
2023-01-28T23:29:24.022Z,12.88
2023-01-28T23:32:04.592Z,12.68
2023-01-28T23:34:36.455Z,13.00
2023-01-28T23:37:04.867Z,11.88
2023-01-28T23:39:31.459Z,12.38
2023-01-28T23:41:58.165Z,11.52
2023-01-28T23:44:26.482Z,11.80
2023-01-28T23:46:54.275Z,11.00
2023-01-28T23:49:21.117Z,11.25
2023-01-28T23:51:47.746Z,11.70
2023-01-28T23:54:14.316Z,11.68
2023-01-28T23:56:40.899Z,9.90
2023-01-28T23:59:07.445Z,12.02
